Time;durP1;ratioP1;P1;durP2;ratioP2;P2;SDS_P1;SDS_P2;PMS_P1;PMS_P2;Temp;Humidity;BMP_temperature;BMP_pressure;BME280_temperature;BME280_humidity;BME280_pressure;Samples;Min_cycle;Max_cycle;Signal;HPM_P1;HPM_P2
2023/06/11 00:00:27;;;;;;;5.53;4.20;;;19.40;99.90;;;;;;5023954;28;20556;-83
2023/06/11 00:02:56;;;;;;;5.93;5.17;;;19.40;99.90;;;;;;5022992;28;20408;-83
2023/06/11 00:05:23;;;;;;;5.50;4.77;;;19.50;99.90;;;;;;5033112;28;20604;-83
2023/06/11 00:07:52;;;;;;;7.37;4.97;;;19.50;99.90;;;;;;5021379;28;20413;-84
2023/06/11 00:10:17;;;;;;;6.80;4.47;;;19.50;99.90;;;;;;5019684;28;20543;-81
2023/06/11 00:12:43;;;;;;;7.03;5.30;;;19.60;99.90;;;;;;5020136;28;20476;-85
2023/06/11 00:15:09;;;;;;;5.63;4.60;;;19.60;99.90;;;;;;5020529;28;20658;-84
2023/06/11 00:17:35;;;;;;;4.87;4.37;;;19.60;99.90;;;;;;5020697;28;20496;-83
2023/06/11 00:20:09;;;;;;;6.70;5.30;;;19.60;99.90;;;;;;5020132;28;20198;-82
2023/06/11 00:22:38;;;;;;;7.07;5.27;;;19.50;99.90;;;;;;5019598;28;20165;-84
2023/06/11 00:25:08;;;;;;;7.50;5.50;;;19.40;99.90;;;;;;5021618;28;20414;-83
2023/06/11 00:27:37;;;;;;;7.17;5.07;;;19.30;99.90;;;;;;5020497;28;20622;-84
2023/06/11 00:30:04;;;;;;;7.93;5.40;;;19.20;99.90;;;;;;5022268;28;20443;-84
2023/06/11 00:32:39;;;;;;;6.23;4.63;;;19.20;99.90;;;;;;5020690;28;20397;-84
2023/06/11 00:35:08;;;;;;;5.47;4.80;;;19.20;99.90;;;;;;5003087;28;20424;-84
2023/06/11 00:37:35;;;;;;;8.60;5.47;;;19.20;99.90;;;;;;5020691;28;20410;-84
2023/06/11 00:40:01;;;;;;;6.30;4.77;;;19.20;99.90;;;;;;5020417;28;20820;-84
2023/06/11 00:42:27;;;;;;;6.17;5.47;;;19.10;99.90;;;;;;5021011;28;20410;-84
2023/06/11 00:44:54;;;;;;;7.53;4.67;;;19.00;99.90;;;;;;5020989;28;20505;-82
2023/06/11 00:47:20;;;;;;;6.67;5.20;;;19.00;99.90;;;;;;5021665;28;20167;-84
2023/06/11 00:49:45;;;;;;;8.37;5.77;;;19.00;99.90;;;;;;5021515;28;20562;-83
2023/06/11 00:52:15;;;;;;;7.00;5.57;;;18.90;99.90;;;;;;5021144;28;20175;-83
2023/06/11 00:54:42;;;;;;;6.90;5.50;;;18.90;99.90;;;;;;5020837;28;20181;-83
2023/06/11 00:57:07;;;;;;;7.03;6.30;;;18.90;99.90;;;;;;5002361;28;20962;-84
2023/06/11 00:59:34;;;;;;;6.57;5.10;;;18.90;99.90;;;;;;4999220;28;20443;-83
2023/06/11 01:02:18;;;;;;;6.67;5.47;;;18.80;99.90;;;;;;5000940;28;20193;-84
2023/06/11 01:04:46;;;;;;;6.50;4.70;;;18.70;99.90;;;;;;4999980;28;20397;-83
2023/06/11 01:07:15;;;;;;;7.33;5.87;;;18.50;99.90;;;;;;5001093;28;20433;-81
2023/06/11 01:09:43;;;;;;;6.23;4.90;;;18.50;99.90;;;;;;5000264;28;20430;-84
2023/06/11 01:12:09;;;;;;;7.27;5.60;;;18.40;99.90;;;;;;5001099;28;20417;-83
2023/06/11 01:14:35;;;;;;;5.30;4.70;;;18.40;99.90;;;;;;4983475;28;20426;-83
2023/06/11 01:17:10;;;;;;;9.77;5.80;;;18.30;99.90;;;;;;5001259;28;20410;-83
2023/06/11 01:20:30;;;;;;;7.80;5.90;;;18.20;99.90;;;;;;5000652;28;20529;-83
2023/06/11 01:23:14;;;;;;;6.20;4.93;;;18.10;99.90;;;;;;4957894;28;20430;-85
2023/06/11 01:26:03;;;;;;;6.60;4.60;;;18.00;99.90;;;;;;4999252;28;20418;-85
2023/06/11 01:28:31;;;;;;;7.57;5.50;;;18.00;99.90;;;;;;4947463;28;20431;-85
2023/06/11 01:30:59;;;;;;;6.13;4.63;;;17.90;99.90;;;;;;5000020;28;20946;-83
2023/06/11 01:33:26;;;;;;;6.03;4.67;;;17.90;99.90;;;;;;5000245;28;20446;-84
2023/06/11 01:35:57;;;;;;;6.87;4.80;;;17.90;99.90;;;;;;5000485;28;20399;-85
2023/06/11 01:38:23;;;;;;;6.10;5.23;;;17.80;99.90;;;;;;5000704;28;20386;-83
2023/06/11 01:40:49;;;;;;;6.50;5.10;;;17.80;99.90;;;;;;5000031;28;20438;-82
2023/06/11 01:43:15;;;;;;;5.83;5.10;;;17.80;99.90;;;;;;4999355;28;20422;-82
2023/06/11 01:45:40;;;;;;;7.27;5.20;;;17.80;99.90;;;;;;4999436;28;20230;-84
2023/06/11 01:48:06;;;;;;;7.07;5.77;;;17.80;99.90;;;;;;4998999;28;20231;-83
2023/06/11 01:50:33;;;;;;;6.10;4.30;;;17.90;99.90;;;;;;4982730;28;20238;-82
2023/06/11 01:52:58;;;;;;;6.60;4.57;;;17.90;99.90;;;;;;4999661;28;20619;-82
2023/06/11 01:55:24;;;;;;;5.83;5.10;;;17.90;99.90;;;;;;5000197;28;20418;-82
2023/06/11 01:57:49;;;;;;;4.90;4.20;;;18.00;99.90;;;;;;5002775;28;20274;-82
2023/06/11 02:00:16;;;;;;;6.17;4.97;;;17.90;99.90;;;;;;5002210;28;20545;-83
2023/06/11 02:02:46;;;;;;;6.20;4.43;;;17.80;99.90;;;;;;5019417;28;20246;-83
2023/06/11 02:05:11;;;;;;;7.03;4.80;;;17.80;99.90;;;;;;5018263;28;20767;-82
2023/06/11 02:07:37;;;;;;;7.63;4.70;;;17.90;99.90;;;;;;5017989;28;20405;-82
2023/06/11 02:10:03;;;;;;;6.70;4.80;;;17.90;99.90;;;;;;5018782;28;20187;-82
2023/06/11 02:12:28;;;;;;;6.50;5.30;;;18.00;99.90;;;;;;5018527;28;20245;-82
2023/06/11 02:14:54;;;;;;;9.67;5.80;;;18.00;99.90;;;;;;5018803;28;20170;-82
2023/06/11 02:17:20;;;;;;;5.60;4.20;;;17.90;99.90;;;;;;4996909;28;20237;-84
2023/06/11 02:19:46;;;;;;;6.57;4.87;;;17.70;99.90;;;;;;4998915;28;20422;-84
2023/06/11 02:22:12;;;;;;;4.80;4.30;;;17.70;99.90;;;;;;5003644;28;20290;-83
2023/06/11 02:24:37;;;;;;;5.17;4.67;;;17.50;99.90;;;;;;5000271;28;20656;-85
2023/06/11 02:27:03;;;;;;;6.63;5.07;;;17.40;99.90;;;;;;5027135;28;20213;-82
2023/06/11 02:29:28;;;;;;;7.40;4.80;;;17.40;99.90;;;;;;4996473;28;20223;-83
2023/06/11 02:31:54;;;;;;;7.70;5.23;;;17.40;99.90;;;;;;4979541;28;20199;-84
2023/06/11 02:34:19;;;;;;;6.73;5.27;;;17.30;99.90;;;;;;4998709;28;20559;-84
2023/06/11 02:36:45;;;;;;;6.27;4.97;;;17.20;99.90;;;;;;5015558;28;20215;-82
2023/06/11 02:39:10;;;;;;;6.03;4.70;;;17.10;99.90;;;;;;5015860;28;20236;-84
2023/06/11 02:41:36;;;;;;;9.90;4.53;;;16.90;99.90;;;;;;5017251;28;20186;-84
2023/06/11 02:44:01;;;;;;;5.83;4.70;;;16.80;99.90;;;;;;5019589;28;20245;-84
2023/06/11 02:46:27;;;;;;;7.63;5.60;;;16.70;99.90;;;;;;5001282;28;20646;-83
2023/06/11 02:48:53;;;;;;;7.93;5.83;;;16.80;99.90;;;;;;5018445;28;20217;-84
2023/06/11 02:51:18;;;;;;;7.00;5.37;;;16.80;99.90;;;;;;5019384;28;20170;-83
2023/06/11 02:53:44;;;;;;;8.60;4.90;;;16.90;99.90;;;;;;5018923;28;20171;-83
2023/06/11 02:56:10;;;;;;;5.97;4.20;;;17.00;99.90;;;;;;5000461;28;20178;-82
2023/06/11 02:58:35;;;;;;;5.77;5.20;;;17.60;99.90;;;;;;4999183;28;20201;-84
2023/06/11 03:01:01;;;;;;;5.87;4.20;;;17.00;99.90;;;;;;5016400;28;20460;-84
2023/06/11 03:03:26;;;;;;;8.03;5.80;;;17.00;99.90;;;;;;5001435;28;20618;-85
2023/06/11 03:05:52;;;;;;;7.33;5.23;;;16.90;99.90;;;;;;5018551;28;20228;-83
2023/06/11 03:08:17;;;;;;;7.53;5.00;;;16.90;99.90;;;;;;5001319;28;20678;-83
2023/06/11 03:10:43;;;;;;;5.23;4.67;;;16.90;99.90;;;;;;5018507;28;20175;-84
2023/06/11 03:13:08;;;;;;;7.87;4.50;;;16.90;99.90;;;;;;5001555;28;20232;-83
2023/06/11 03:15:34;;;;;;;7.67;5.70;;;16.90;99.90;;;;;;4997943;28;20536;-83
2023/06/11 03:18:00;;;;;;;9.60;5.37;;;16.90;99.90;;;;;;5016968;28;20663;-82
2023/06/11 03:20:25;;;;;;;7.23;5.30;;;16.80;99.90;;;;;;5016719;28;20199;-83
2023/06/11 03:22:51;;;;;;;9.33;5.90;;;16.80;99.90;;;;;;5016368;28;20175;-83
2023/06/11 03:25:16;;;;;;;5.10;4.33;;;16.80;99.90;;;;;;4999326;28;20185;-84
2023/06/11 03:27:42;;;;;;;6.67;5.23;;;16.90;99.90;;;;;;4999760;28;20193;-84
2023/06/11 03:30:08;;;;;;;4.90;4.40;;;16.80;99.90;;;;;;5016853;28;20644;-82
2023/06/11 03:32:33;;;;;;;6.47;5.00;;;16.90;99.90;;;;;;5017509;28;20159;-85
2023/06/11 03:34:59;;;;;;;4.90;4.33;;;17.00;99.90;;;;;;5017929;28;20185;-82
2023/06/11 03:37:24;;;;;;;6.47;5.10;;;16.90;99.90;;;;;;5018791;28;20171;-84
2023/06/11 03:39:50;;;;;;;6.77;5.40;;;16.70;99.90;;;;;;5017777;28;20197;-83
2023/06/11 03:42:16;;;;;;;6.93;4.87;;;16.40;99.90;;;;;;5018864;28;20201;-84
2023/06/11 03:44:41;;;;;;;9.70;5.00;;;16.30;99.90;;;;;;5019112;28;20178;-82
2023/06/11 03:47:07;;;;;;;7.23;5.30;;;16.30;99.90;;;;;;5004227;28;20167;-83
2023/06/11 03:49:32;;;;;;;7.10;5.07;;;16.30;99.90;;;;;;5024526;28;20210;-83
2023/06/11 03:51:58;;;;;;;5.80;5.13;;;16.20;99.90;;;;;;5007074;28;20170;-82
2023/06/11 03:54:24;;;;;;;5.73;4.57;;;16.20;99.90;;;;;;5023757;28;20301;-81
2023/06/11 03:56:49;;;;;;;8.53;5.47;;;16.20;99.90;;;;;;5023220;28;20197;-82
2023/06/11 03:59:15;;;;;;;6.03;5.33;;;16.30;99.90;;;;;;5023807;28;20249;-82
2023/06/11 04:01:41;;;;;;;8.40;6.00;;;16.30;99.90;;;;;;5023406;28;20195;-84
2023/06/11 04:04:07;;;;;;;7.80;6.23;;;16.40;99.90;;;;;;5021809;28;20182;-83
2023/06/11 04:06:37;;;;;;;10.27;6.77;;;16.40;99.90;;;;;;5020750;28;20449;-84
2023/06/11 04:09:03;;;;;;;8.67;6.40;;;16.50;99.90;;;;;;5020672;28;20286;-84
2023/06/11 04:11:29;;;;;;;8.30;6.10;;;16.60;99.90;;;;;;5016358;28;20453;-83
2023/06/11 04:13:55;;;;;;;9.20;6.70;;;16.70;99.90;;;;;;4984051;28;20445;-85
2023/06/11 04:16:20;;;;;;;9.93;6.90;;;17.00;99.90;;;;;;5015780;28;20196;-83
2023/06/11 04:18:47;;;;;;;8.63;6.10;;;18.30;99.90;;;;;;5004153;28;20937;-84
2023/06/11 04:21:13;;;;;;;7.53;6.00;;;20.00;99.90;;;;;;5019679;28;20836;-84
2023/06/11 04:23:39;;;;;;;8.87;5.70;;;22.20;99.90;;;;;;5019612;28;20420;-83
2023/06/11 04:26:07;;;;;;;8.00;6.13;;;24.20;99.90;;;;;;5020821;28;20429;-83
2023/06/11 04:28:35;;;;;;;6.37;5.33;;;27.10;99.90;;;;;;5002630;28;20163;-85
2023/06/11 04:31:01;;;;;;;5.50;4.90;;;27.20;99.90;;;;;;5002359;28;20437;-83
2023/06/11 04:33:36;;;;;;;6.60;5.43;;;28.40;99.90;;;;;;5002437;28;20485;-82
2023/06/11 04:36:07;;;;;;;8.87;6.50;;;29.60;99.90;;;;;;5002647;28;20418;-83
2023/06/11 04:38:37;;;;;;;6.50;5.03;;;31.70;94.10;;;;;;5019326;28;20811;-84
2023/06/11 04:41:05;;;;;;;6.03;5.50;;;31.70;94.10;;;;;;5019663;28;20453;-85
2023/06/11 04:43:36;;;;;;;8.20;6.47;;;32.20;89.50;;;;;;5003536;28;20913;-83
2023/06/11 04:46:03;;;;;;;7.37;6.33;;;32.30;82.80;;;;;;5020394;28;20777;-82
2023/06/11 04:48:31;;;;;;;8.80;5.77;;;33.40;74.60;;;;;;5002269;28;20417;-83
2023/06/11 04:51:00;;;;;;;7.77;6.63;;;33.50;75.00;;;;;;5019455;28;20406;-85
2023/06/11 04:53:27;;;;;;;6.67;6.10;;;33.70;71.10;;;;;;5002877;28;20423;-82
2023/06/11 04:55:58;;;;;;;6.50;5.90;;;33.70;71.90;;;;;;5021088;28;20412;-84
2023/06/11 04:58:24;;;;;;;7.77;7.00;;;33.80;66.70;;;;;;5002645;28;20441;-83
2023/06/11 05:00:51;;;;;;;6.80;5.77;;;33.70;67.20;;;;;;5022275;28;20819;-83
2023/06/11 05:03:18;;;;;;;6.87;5.77;;;34.10;65.90;;;;;;5003738;28;20418;-84
2023/06/11 05:05:51;;;;;;;9.70;6.80;;;34.30;63.90;;;;;;5019891;28;20414;-84
2023/06/11 05:08:18;;;;;;;9.07;6.27;;;34.30;63.10;;;;;;5020220;28;20741;-85
2023/06/11 05:10:45;;;;;;;6.73;6.13;;;34.60;61.70;;;;;;5018497;28;20491;-84
2023/06/11 05:13:11;;;;;;;7.60;6.80;;;34.80;60.80;;;;;;5017890;28;20424;-81
2023/06/11 05:15:37;;;;;;;7.67;6.97;;;35.20;59.50;;;;;;5003355;28;20496;-82
2023/06/11 05:18:03;;;;;;;7.80;7.10;;;35.30;59.10;;;;;;5000908;28;20443;-82
2023/06/11 05:20:28;;;;;;;7.10;6.50;;;35.70;57.80;;;;;;5019151;28;20237;-82
2023/06/11 05:22:58;;;;;;;8.13;7.33;;;35.70;57.50;;;;;;5019471;28;20170;-82
2023/06/11 05:25:28;;;;;;;8.03;7.23;;;35.40;57.30;;;;;;5001999;28;20717;-84
2023/06/11 05:27:55;;;;;;;7.50;6.80;;;34.30;58.50;;;;;;5018199;28;20417;-84
2023/06/11 05:30:24;;;;;;;7.70;7.00;;;34.60;58.60;;;;;;5007946;28;20457;-84
2023/06/11 05:32:50;;;;;;;8.73;7.90;;;35.10;57.70;;;;;;5018812;28;20414;-84
2023/06/11 05:35:16;;;;;;;8.47;7.47;;;35.60;56.80;;;;;;4999151;28;20754;-84
2023/06/11 05:37:42;;;;;;;8.17;7.47;;;36.30;56.50;;;;;;5016121;28;20452;-83
2023/06/11 05:40:09;;;;;;;8.80;8.00;;;36.30;54.80;;;;;;4998980;28;20521;-83
2023/06/11 05:42:34;;;;;;;7.63;7.03;;;36.30;55.20;;;;;;5015528;28;20174;-85
2023/06/11 05:45:00;;;;;;;9.43;7.37;;;36.40;56.90;;;;;;5018084;28;20457;-84
2023/06/11 05:47:26;;;;;;;9.80;8.57;;;;;;;;;;5001728;28;20167;-81
2023/06/11 05:49:52;;;;;;;9.20;8.03;;;;;;;;;;5001199;28;20205;-84
2023/06/11 05:52:17;;;;;;;7.93;7.33;;;40.30;58.20;;;;;;5017116;28;21096;-84
2023/06/11 05:54:43;;;;;;;8.80;8.20;;;41.50;54.60;;;;;;4999528;28;20783;-85
2023/06/11 05:57:22;;;;;;;8.57;7.97;;;41.80;49.60;;;;;;5018420;28;20178;-85
2023/06/11 05:59:48;;;;;;;9.87;9.00;;;39.90;44.70;;;;;;5017023;28;20233;-84
2023/06/11 06:02:15;;;;;;;8.77;8.17;;;;;;;;;;5017965;28;20447;-82
2023/06/11 06:04:40;;;;;;;10.47;9.77;;;;;;;;;;5027090;28;20495;-83
2023/06/11 06:07:06;;;;;;;9.93;9.13;;;;;;;;;;5022351;28;20446;-81
2023/06/11 06:09:35;;;;;;;10.47;9.77;;;38.40;46.10;;;;;;5016773;28;20432;-83
2023/06/11 06:12:01;;;;;;;9.10;8.27;;;;;;;;;;5011107;28;20521;-83
2023/06/11 06:14:27;;;;;;;9.40;8.63;;;;;;;;;;5013973;28;20933;-82
2023/06/11 06:16:52;;;;;;;9.50;8.73;;;38.50;45.20;;;;;;4994980;28;20833;-84
2023/06/11 06:19:18;;;;;;;8.53;7.90;;;38.20;46.40;;;;;;5007197;28;20462;-85
2023/06/11 06:21:44;;;;;;;10.27;9.17;;;38.50;48.00;;;;;;4991741;28;20249;-84
2023/06/11 06:24:13;;;;;;;10.20;9.40;;;40.20;49.80;;;;;;5010125;28;20239;-84
2023/06/11 06:26:40;;;;;;;9.33;8.63;;;40.20;44.90;;;;;;5013473;28;21018;-84
2023/06/11 06:29:07;;;;;;;9.70;9.00;;;;;;;;;;5013108;28;20486;-83
2023/06/11 06:31:33;;;;;;;9.53;8.77;;;;;;;;;;4997894;28;20458;-82
2023/06/11 06:33:59;;;;;;;9.77;9.13;;;;;;;;;;4995217;28;20435;-89
2023/06/11 06:36:25;;;;;;;10.40;9.70;;;;;;;;;;5012126;28;21009;-89
2023/06/11 06:38:51;;;;;;;9.97;9.10;;;;;;;;;;4994206;28;20462;-88
2023/06/11 06:41:17;;;;;;;12.40;9.43;;;;;;;;;;5002848;28;20479;-88
2023/06/11 06:43:43;;;;;;;9.00;8.40;;;38.20;44.50;;;;;;4990563;28;20433;-89
2023/06/11 06:46:08;;;;;;;8.83;8.13;;;36.00;47.90;;;;;;4989792;28;20519;-89
2023/06/11 06:48:34;;;;;;;8.10;7.57;;;;;;;;;;4991253;28;20225;-88
2023/06/11 06:51:00;;;;;;;8.47;7.87;;;36.80;48.90;;;;;;4986605;28;20194;-89
2023/06/11 06:53:27;;;;;;;7.97;7.27;;;36.20;48.70;;;;;;4997671;28;21086;-88
2023/06/11 06:55:52;;;;;;;7.10;6.60;;;;;;;;;;4990464;28;20814;-88
2023/06/11 06:58:18;;;;;;;7.57;6.93;;;34.20;50.60;;;;;;4994455;28;20437;-88
2023/06/11 07:00:45;;;;;;;7.10;6.50;;;33.90;51.30;;;;;;4995192;28;20580;-89
2023/06/11 07:03:13;;;;;;;7.50;6.80;;;34.40;51.90;;;;;;5012596;28;20173;-87
2023/06/11 07:05:40;;;;;;;6.90;6.30;;;34.50;50.70;;;;;;4989574;28;20446;-87
2023/06/11 07:08:07;;;;;;;7.43;6.73;;;34.90;50.60;;;;;;4994353;28;20447;-88
2023/06/11 07:10:33;;;;;;;7.20;6.70;;;34.90;48.70;;;;;;5009553;28;20493;-88
2023/06/11 07:12:59;;;;;;;7.50;6.80;;;;;;;;;;5000398;28;20450;-87
2023/06/11 07:15:24;;;;;;;8.10;7.50;;;33.50;50.50;;;;;;4996276;28;20182;-88
2023/06/11 07:17:50;;;;;;;6.97;6.33;;;33.00;50.30;;;;;;5009091;28;20433;-88
2023/06/11 07:20:15;;;;;;;6.90;6.30;;;32.80;51.20;;;;;;4990154;28;20207;-89
2023/06/11 07:22:41;;;;;;;6.53;6.03;;;;;;;;;;4995104;28;20204;-88
2023/06/11 07:25:08;;;;;;;7.17;6.57;;;32.70;51.70;;;;;;4998329;28;20182;-88
2023/06/11 07:27:34;;;;;;;7.10;6.60;;;;;;;;;;5000877;28;20849;-88
2023/06/11 07:29:59;;;;;;;6.80;6.20;;;32.30;51.70;;;;;;5016822;28;20456;-88
2023/06/11 07:32:25;;;;;;;6.63;5.90;;;32.10;53.90;;;;;;5017819;28;20444;-88
2023/06/11 07:34:50;;;;;;;8.47;5.77;;;31.40;53.10;;;;;;5015663;28;20192;-88
2023/06/11 07:37:16;;;;;;;8.87;6.60;;;;;;;;;;5015829;28;20273;-88
2023/06/11 07:39:42;;;;;;;6.27;5.73;;;32.70;51.50;;;;;;4998926;28;20206;-88
2023/06/11 07:42:10;;;;;;;8.60;6.53;;;32.50;51.70;;;;;;5014894;28;20467;-88
2023/06/11 07:44:36;;;;;;;6.20;5.80;;;;;;;;;;4995311;28;21130;-88
2023/06/11 07:47:02;;;;;;;6.17;5.77;;;;;;;;;;4996565;28;20438;-88
2023/06/11 07:49:28;;;;;;;7.70;7.00;;;33.20;50.70;;;;;;5012861;28;20450;-88
2023/06/11 07:51:54;;;;;;;6.57;6.00;;;;;;;;;;5016089;28;20449;-87
2023/06/11 07:54:20;;;;;;;6.67;5.93;;;;;;;;;;4998915;28;20196;-88
2023/06/11 07:56:46;;;;;;;7.73;7.03;;;;;;;;;;4997179;28;20517;-88
2023/06/11 07:59:13;;;;;;;7.20;6.70;;;33.70;50.00;;;;;;5016359;28;20469;-88
2023/06/11 08:01:38;;;;;;;6.67;6.10;;;33.70;50.10;;;;;;5016460;28;20932;-88
2023/06/11 08:04:04;;;;;;;5.97;5.50;;;;;;;;;;4998574;28;20442;-89
2023/06/11 08:06:30;;;;;;;7.07;6.47;;;;;;;;;;5000207;28;20240;-90
2023/06/11 08:08:56;;;;;;;7.37;6.67;;;;;;;;;;5001554;28;20448;-88
2023/06/11 08:11:23;;;;;;;7.10;6.47;;;;;;;;;;5017700;28;20488;-88
2023/06/11 08:13:49;;;;;;;7.40;6.87;;;;;;;;;;5013757;28;20451;-88
2023/06/11 08:16:15;;;;;;;7.40;6.80;;;35.30;47.30;;;;;;5000563;28;20431;-87
2023/06/11 08:18:41;;;;;;;8.00;7.40;;;;;;;;;;5016458;28;20473;-88
2023/06/11 08:21:07;;;;;;;7.90;6.60;;;;;;;;;;4998856;28;20462;-88
2023/06/11 08:23:36;;;;;;;7.97;7.27;;;34.60;47.30;;;;;;4996509;28;20428;-90
2023/06/11 08:26:02;;;;;;;7.47;6.97;;;34.30;47.30;;;;;;5013693;28;20442;-89
2023/06/11 08:28:28;;;;;;;7.90;7.30;;;;;;;;;;5010550;28;20440;-88
2023/06/11 08:30:55;;;;;;;10.33;7.00;;;33.60;48.70;;;;;;4996198;28;20544;-88
2023/06/11 08:33:23;;;;;;;8.27;7.57;;;;;;;;;;4994966;28;20532;-88
2023/06/11 08:35:49;;;;;;;7.60;7.10;;;;;;;;;;5009840;28;20913;-88
2023/06/11 08:38:15;;;;;;;7.40;6.80;;;35.00;50.40;;;;;;4997675;28;20525;-88
2023/06/11 08:40:42;;;;;;;7.47;6.90;;;35.50;46.70;;;;;;4995109;28;20545;-89
2023/06/11 08:43:08;;;;;;;8.07;7.40;;;;;;;;;;5012789;28;20197;-88
2023/06/11 08:45:34;;;;;;;7.77;7.20;;;;;;;;;;4994174;28;20446;-88
2023/06/11 08:48:03;;;;;;;8.50;7.93;;;35.10;45.50;;;;;;4989534;28;20431;-88
2023/06/11 08:50:31;;;;;;;8.57;7.97;;;34.60;44.90;;;;;;4990947;28;20460;-88
2023/06/11 08:53:01;;;;;;;8.20;7.63;;;34.60;44.70;;;;;;4991592;28;20491;-88
2023/06/11 08:55:29;;;;;;;7.90;7.40;;;32.90;44.70;;;;;;4997747;28;20479;-88
2023/06/11 08:57:55;;;;;;;7.30;6.70;;;;;;;;;;5018067;28;20506;-87
2023/06/11 09:00:22;;;;;;;7.60;7.10;;;32.50;46.20;;;;;;5000911;28;20727;-88
2023/06/11 09:02:49;;;;;;;6.90;6.40;;;32.70;46.20;;;;;;5000592;28;20486;-88
2023/06/11 09:05:15;;;;;;;7.33;6.57;;;33.10;46.30;;;;;;5015098;28;20426;-88
2023/06/11 09:07:51;;;;;;;7.13;6.53;;;32.90;46.00;;;;;;5001486;28;20435;-87
2023/06/11 09:10:17;;;;;;;6.40;6.00;;;33.60;47.10;;;;;;4998310;28;20206;-88
2023/06/11 09:12:44;;;;;;;7.00;6.40;;;;;;;;;;5000773;28;20429;-88
2023/06/11 09:15:12;;;;;;;7.00;6.30;;;32.70;44.30;;;;;;5002637;28;20417;-88
2023/06/11 09:17:39;;;;;;;7.30;6.70;;;32.40;42.20;;;;;;5004529;28;20804;-88
2023/06/11 09:20:12;;;;;;;6.60;6.03;;;32.50;42.00;;;;;;5015726;28;20454;-88
2023/06/11 09:22:40;;;;;;;7.97;7.20;;;31.50;42.60;;;;;;5002032;28;20486;-87
2023/06/11 09:25:09;;;;;;;7.87;7.17;;;31.90;43.60;;;;;;5019137;28;20507;-88
2023/06/11 09:27:36;;;;;;;7.47;6.77;;;31.50;43.80;;;;;;5000989;28;20433;-85
2023/06/11 09:30:16;;;;;;;7.80;7.10;;;32.60;43.50;;;;;;5000554;28;20455;-88
2023/06/11 09:32:44;;;;;;;7.57;6.97;;;33.50;42.50;;;;;;4999507;28;20840;-88
2023/06/11 09:35:11;;;;;;;6.90;6.20;;;33.00;39.50;;;;;;4993638;28;20440;-87
2023/06/11 09:37:44;;;;;;;6.80;6.30;;;32.30;40.50;;;;;;5018539;28;20449;-88
2023/06/11 09:40:14;;;;;;;6.73;6.23;;;32.40;40.70;;;;;;5004997;28;20450;-89
2023/06/11 09:42:40;;;;;;;7.50;6.90;;;32.40;41.00;;;;;;5001631;28;20439;-89
2023/06/11 09:45:13;;;;;;;6.60;6.10;;;32.10;41.50;;;;;;5001613;28;20486;-88
2023/06/11 09:47:39;;;;;;;10.80;7.27;;;32.20;41.40;;;;;;5017038;28;20432;-88
2023/06/11 09:50:06;;;;;;;7.70;6.80;;;31.90;40.40;;;;;;4996449;28;20445;-88
2023/06/11 09:52:34;;;;;;;7.20;6.37;;;32.00;40.50;;;;;;4996789;28;20193;-89
2023/06/11 09:55:00;;;;;;;9.20;6.27;;;;;;;;;;4998641;28;20510;-88
2023/06/11 09:57:28;;;;;;;7.83;7.03;;;33.50;37.30;;;;;;5002382;28;20456;-87
2023/06/11 09:59:55;;;;;;;6.80;6.40;;;;;;;;;;4999242;28;20491;-88
2023/06/11 10:02:22;;;;;;;8.17;7.57;;;;;;;;;;5000453;28;20474;-89
2023/06/11 10:04:48;;;;;;;8.60;7.90;;;;;;;;;;5018400;28;20434;-88
2023/06/11 10:07:14;;;;;;;7.97;7.47;;;;;;;;;;5005013;28;20411;-88
2023/06/11 10:09:42;;;;;;;8.70;7.00;;;34.60;32.80;;;;;;5002953;28;20459;-89
2023/06/11 10:12:08;;;;;;;8.10;7.30;;;34.00;35.50;;;;;;5017340;28;20823;-89
2023/06/11 10:14:36;;;;;;;8.47;7.63;;;34.00;31.30;;;;;;5002986;28;20428;-87
2023/06/11 10:17:08;;;;;;;7.80;7.27;;;33.30;36.80;;;;;;4997633;28;20513;-88
2023/06/11 10:19:36;;;;;;;7.37;6.90;;;32.90;38.40;;;;;;5001457;28;20511;-89
2023/06/11 10:22:03;;;;;;;7.17;6.50;;;;;;;;;;5014795;28;20826;-88
2023/06/11 10:24:28;;;;;;;7.20;6.70;;;32.70;31.80;;;;;;4999170;28;20432;-90
2023/06/11 10:27:12;;;;;;;7.13;6.63;;;31.40;32.80;;;;;;5018563;28;20479;-88
2023/06/11 10:29:48;;;;;;;7.10;6.60;;;31.90;34.80;;;;;;5018391;28;20672;-89
2023/06/11 10:32:18;;;;;;;7.90;7.20;;;32.30;32.80;;;;;;5001258;28;20454;-88
2023/06/11 10:34:47;;;;;;;6.60;6.10;;;31.50;30.70;;;;;;5019139;28;20443;-89
2023/06/11 10:37:13;;;;;;;6.70;6.20;;;31.00;32.50;;;;;;5001938;28;20456;-87
2023/06/11 10:39:50;;;;;;;6.27;5.80;;;30.60;34.50;;;;;;4998303;28;20457;-88
2023/06/11 10:42:23;;;;;;;6.70;6.20;;;29.40;36.20;;;;;;5004531;28;20215;-87
2023/06/11 10:44:49;;;;;;;8.13;6.60;;;30.00;37.60;;;;;;5004657;28;20429;-87
2023/06/11 10:47:15;;;;;;;5.93;5.50;;;28.80;35.70;;;;;;5000414;28;20416;-88
2023/06/11 10:49:42;;;;;;;5.37;4.97;;;28.40;36.80;;;;;;5001185;28;20450;-88
2023/06/11 10:52:09;;;;;;;6.67;6.00;;;;;;;;;;5002684;28;20179;-88
2023/06/11 10:54:36;;;;;;;5.47;4.97;;;;;;;;;;5020258;28;20507;-88
2023/06/11 10:57:03;;;;;;;6.13;5.63;;;28.70;37.10;;;;;;5003754;28;20429;-88
2023/06/11 10:59:30;;;;;;;5.50;5.03;;;28.60;37.60;;;;;;5018066;28;20455;-88
2023/06/11 11:01:56;;;;;;;5.30;4.90;;;28.60;37.40;;;;;;5019063;28;20463;-88
2023/06/11 11:04:22;;;;;;;6.30;5.50;;;28.50;35.60;;;;;;5015930;28;20417;-87
2023/06/11 11:06:49;;;;;;;6.40;5.90;;;28.70;36.40;;;;;;5020624;28;20445;-87
2023/06/11 11:09:23;;;;;;;7.30;6.23;;;28.60;36.90;;;;;;5021035;28;20961;-87
2023/06/11 11:11:50;;;;;;;6.40;5.80;;;28.60;35.40;;;;;;5000719;28;20434;-87
2023/06/11 11:14:22;;;;;;;6.10;5.50;;;;;;;;;;5004666;28;20862;-88
2023/06/11 11:16:48;;;;;;;6.07;5.50;;;28.60;35.50;;;;;;5004948;28;20538;-89
2023/06/11 11:19:14;;;;;;;6.77;5.87;;;28.70;36.60;;;;;;5001069;28;20437;-87
2023/06/11 11:21:42;;;;;;;7.00;6.23;;;;;;;;;;4998724;28;20465;-87
2023/06/11 11:24:09;;;;;;;6.17;5.50;;;28.70;34.70;;;;;;5024831;28;20534;-88
2023/06/11 11:26:42;;;;;;;6.47;5.87;;;28.70;35.60;;;;;;5003792;28;20433;-87
2023/06/11 11:29:08;;;;;;;6.70;6.10;;;;;;;;;;4999472;28;20537;-87
2023/06/11 11:31:34;;;;;;;6.20;5.60;;;28.60;34.20;;;;;;5016129;28;20814;-87
2023/06/11 11:34:00;;;;;;;6.00;5.50;;;;;;;;;;5009120;28;20489;-86
2023/06/11 11:36:26;;;;;;;6.67;6.07;;;;;;;;;;5002025;28;20846;-86
2023/06/11 11:38:53;;;;;;;6.13;5.53;;;28.60;34.20;;;;;;5012095;28;20456;-86
2023/06/11 11:41:24;;;;;;;6.80;5.50;;;28.70;33.40;;;;;;4997723;28;20462;-88
2023/06/11 11:43:50;;;;;;;5.60;5.10;;;;;;;;;;5019614;28;20439;-87
2023/06/11 11:46:25;;;;;;;4.80;4.50;;;28.70;32.80;;;;;;5000811;28;21032;-87
2023/06/11 11:48:55;;;;;;;5.73;5.23;;;28.70;33.50;;;;;;4999360;28;20438;-87
2023/06/11 11:51:24;;;;;;;5.30;4.90;;;28.80;34.70;;;;;;5009845;28;20539;-87
2023/06/11 11:53:51;;;;;;;6.37;5.87;;;29.60;35.40;;;;;;4996846;28;20433;-87
2023/06/11 11:56:18;;;;;;;6.10;5.70;;;29.30;34.20;;;;;;5021311;28;20425;-87
2023/06/11 11:58:44;;;;;;;6.67;5.53;;;29.10;36.60;;;;;;4998278;28;20443;-88
2023/06/11 12:01:21;;;;;;;5.70;5.30;;;29.20;36.40;;;;;;4996124;28;20818;-87
2023/06/11 12:03:57;;;;;;;6.30;5.80;;;29.30;36.40;;;;;;5011837;28;20426;-87
2023/06/11 12:06:25;;;;;;;6.57;5.90;;;29.30;37.10;;;;;;4994807;28;20438;-87
2023/06/11 12:08:50;;;;;;;7.27;6.67;;;29.10;37.60;;;;;;4989252;28;20460;-88
2023/06/11 12:11:16;;;;;;;6.40;5.93;;;28.90;38.40;;;;;;5004589;28;20515;-88
2023/06/11 12:13:42;;;;;;;6.57;5.93;;;28.90;37.20;;;;;;5022387;28;20183;-87
2023/06/11 12:16:08;;;;;;;6.97;6.40;;;;;;;;;;4999236;28;20451;-87
2023/06/11 12:18:34;;;;;;;5.87;5.43;;;29.00;37.60;;;;;;5008774;28;20684;-88
2023/06/11 12:21:00;;;;;;;6.30;5.80;;;26.30;36.70;;;;;;5002074;28;20536;-89
2023/06/11 12:23:26;;;;;;;8.20;6.30;;;29.00;39.10;;;;;;5000561;28;20185;-87
2023/06/11 12:25:52;;;;;;;6.90;6.03;;;;;;;;;;5019905;28;20540;-88
2023/06/11 12:28:18;;;;;;;6.90;6.20;;;;;;;;;;5012237;28;20189;-88
2023/06/11 12:30:44;;;;;;;6.47;5.90;;;29.40;37.60;;;;;;5021821;28;20539;-87
2023/06/11 12:33:10;;;;;;;8.70;5.57;;;29.40;38.60;;;;;;5017640;28;20519;-86
2023/06/11 12:35:36;;;;;;;7.70;6.83;;;30.40;39.50;;;;;;5000596;28;20215;-86
2023/06/11 12:38:02;;;;;;;7.13;6.53;;;;;;;;;;5018041;28;20180;-87
2023/06/11 12:40:30;;;;;;;7.03;6.43;;;29.30;38.40;;;;;;5018415;28;20221;-88
2023/06/11 12:42:58;;;;;;;5.97;5.47;;;29.40;39.20;;;;;;5012862;28;20647;-88
2023/06/11 12:45:26;;;;;;;6.37;5.77;;;29.60;39.80;;;;;;5000523;28;20413;-88
2023/06/11 12:47:52;;;;;;;6.13;5.53;;;;;;;;;;5003081;28;20429;-89
2023/06/11 12:50:18;;;;;;;6.90;6.20;;;29.50;38.90;;;;;;5020582;28;20488;-87
2023/06/11 12:52:45;;;;;;;6.70;6.07;;;29.30;40.10;;;;;;5014152;28;20444;-87
2023/06/11 12:55:10;;;;;;;10.60;5.57;;;29.20;40.30;;;;;;5001993;28;20648;-86
2023/06/11 12:57:36;;;;;;;6.87;6.13;;;29.50;39.20;;;;;;5011399;28;20416;-86
2023/06/11 13:00:03;;;;;;;8.73;6.53;;;29.90;39.50;;;;;;5019021;28;20706;-86
2023/06/11 13:02:29;;;;;;;6.27;5.70;;;29.80;39.40;;;;;;5025326;28;20452;-87
2023/06/11 13:04:55;;;;;;;5.97;5.40;;;;;;;;;;5011489;28;20414;-87